createdAt,value
2023-04-18T00:00:53.291Z,9.55
2023-04-18T00:03:23.864Z,9.40
2023-04-18T00:05:53.399Z,8.90
2023-04-18T00:08:22.295Z,11.25
2023-04-18T00:10:51.391Z,10.32
2023-04-18T00:13:20.292Z,10.65
2023-04-18T00:15:49.360Z,11.00
2023-04-18T00:18:20.447Z,10.02
2023-04-18T00:20:50.829Z,11.35
2023-04-18T00:23:22.349Z,11.32
2023-04-18T00:25:51.423Z,10.98
2023-04-18T00:28:20.366Z,13.50
2023-04-18T00:30:51.150Z,12.63
2023-04-18T00:33:20.333Z,10.93
2023-04-18T00:35:51.024Z,11.18
2023-04-18T00:38:19.992Z,8.60
2023-04-18T00:40:50.198Z,10.00
2023-04-18T00:43:19.171Z,9.00
2023-04-18T00:45:48.119Z,7.78
2023-04-18T00:48:18.030Z,7.60
2023-04-18T00:50:47.290Z,8.20
2023-04-18T00:53:17.994Z,8.73
2023-04-18T00:55:48.140Z,9.55
2023-04-18T00:58:17.888Z,9.40
2023-04-18T01:00:48.390Z,8.63
2023-04-18T01:03:18.546Z,7.35
2023-04-18T01:05:48.655Z,9.25
2023-04-18T01:08:20.016Z,8.43
2023-04-18T01:10:49.389Z,7.43
2023-04-18T01:13:20.873Z,6.47
2023-04-18T01:15:51.732Z,7.00
2023-04-18T01:18:20.951Z,6.00
2023-04-18T01:20:51.693Z,6.43
2023-04-18T01:23:24.317Z,5.28
2023-04-18T01:25:54.700Z,5.57
2023-04-18T01:28:23.736Z,5.43
2023-04-18T01:30:52.895Z,4.82
2023-04-18T01:33:21.863Z,5.10
2023-04-18T01:35:51.068Z,6.40
2023-04-18T01:38:20.216Z,5.72
2023-04-18T01:40:49.891Z,5.68
2023-04-18T01:43:20.232Z,5.30
2023-04-18T01:45:49.369Z,5.30
2023-04-18T01:48:18.391Z,5.15
2023-04-18T01:50:47.421Z,3.90
2023-04-18T01:53:17.728Z,5.20
2023-04-18T01:55:46.904Z,6.43
2023-04-18T01:58:16.359Z,4.70
2023-04-18T02:00:46.874Z,5.50
2023-04-18T02:03:16.070Z,6.18
2023-04-18T02:05:45.292Z,5.80
2023-04-18T02:08:14.601Z,5.35
2023-04-18T02:10:44.045Z,4.88
2023-04-18T02:13:14.594Z,6.35
2023-04-18T02:15:46.690Z,6.15
2023-04-18T02:18:18.519Z,5.28
2023-04-18T02:20:49.048Z,5.80
2023-04-18T02:23:17.995Z,5.95
2023-04-18T02:25:47.115Z,6.40
2023-04-18T02:28:18.155Z,6.90
2023-04-18T02:30:48.590Z,6.38
2023-04-18T02:33:17.560Z,7.25
2023-04-18T02:35:46.975Z,7.00
2023-04-18T02:38:18.050Z,8.00
2023-04-18T02:40:47.029Z,8.25
2023-04-18T02:43:16.101Z,8.98
2023-04-18T02:45:45.175Z,7.68
2023-04-18T02:48:15.748Z,8.27
2023-04-18T02:50:47.571Z,8.52
2023-04-18T02:53:17.041Z,8.73
2023-04-18T02:55:55.757Z,9.18
2023-04-18T02:58:31.765Z,8.35
2023-04-18T03:01:33.120Z,9.82
2023-04-18T03:04:23.866Z,7.57
2023-04-18T03:06:59.365Z,8.90
2023-04-18T03:09:29.743Z,7.90
2023-04-18T03:12:04.095Z,8.43
2023-04-18T03:14:34.140Z,9.20
2023-04-18T03:17:04.411Z,8.82
2023-04-18T03:19:40.815Z,7.70
2023-04-18T03:22:12.714Z,7.65
2023-04-18T03:24:48.367Z,7.82
2023-04-18T03:27:18.042Z,8.73
2023-04-18T03:29:47.979Z,8.10
2023-04-18T03:32:18.565Z,8.45
2023-04-18T03:34:49.062Z,8.15
2023-04-18T03:37:18.403Z,8.43
2023-04-18T03:39:52.524Z,7.10
2023-04-18T03:42:22.533Z,9.07
2023-04-18T03:44:51.623Z,7.18
2023-04-18T03:47:20.714Z,7.28
2023-04-18T03:52:29.708Z,8.02
2023-04-18T03:54:59.349Z,7.43
2023-04-18T03:57:33.584Z,8.50
2023-04-18T04:00:08.301Z,7.15
2023-04-18T04:02:45.639Z,7.80
2023-04-18T04:05:22.720Z,7.65
2023-04-18T04:07:52.990Z,6.55
2023-04-18T04:10:22.179Z,7.45
2023-04-18T04:12:52.553Z,8.40
2023-04-18T04:15:22.522Z,8.10
2023-04-18T04:17:57.807Z,6.88
2023-04-18T04:20:28.290Z,6.90
2023-04-18T04:23:06.462Z,7.15
2023-04-18T04:25:38.777Z,6.70
2023-04-18T04:28:16.123Z,7.28
2023-04-18T04:30:55.714Z,7.03
2023-04-18T04:33:28.799Z,7.50
2023-04-18T04:36:03.249Z,6.80
2023-04-18T04:38:34.537Z,7.07
2023-04-18T04:41:03.896Z,6.80
2023-04-18T04:43:32.838Z,7.13
2023-04-18T04:46:03.996Z,7.68
2023-04-18T04:48:33.056Z,7.43
2023-04-18T04:51:03.517Z,7.50
2023-04-18T04:53:32.616Z,6.85
2023-04-18T04:56:04.950Z,7.43
2023-04-18T04:58:36.952Z,8.00
2023-04-18T05:01:25.230Z,7.68
2023-04-18T05:03:54.361Z,7.05
2023-04-18T05:06:25.958Z,7.47
2023-04-18T05:08:56.161Z,8.18
2023-04-18T05:11:25.499Z,8.75
2023-04-18T05:13:54.515Z,8.05
2023-04-18T05:16:23.582Z,7.57
2023-04-18T05:18:52.944Z,8.40
2023-04-18T05:21:21.910Z,8.98
2023-04-18T05:23:52.312Z,8.20
2023-04-18T05:26:21.525Z,8.38
2023-04-18T05:28:50.770Z,8.38
2023-04-18T05:31:20.009Z,8.25
2023-04-18T05:34:07.815Z,8.48
2023-04-18T05:36:36.857Z,7.35
2023-04-18T05:39:26.167Z,7.82
2023-04-18T05:41:55.833Z,7.63
2023-04-18T05:44:25.454Z,8.48
2023-04-18T05:46:54.446Z,8.65
2023-04-18T05:49:23.704Z,8.20
2023-04-18T05:51:53.526Z,9.88
2023-04-18T05:54:22.648Z,7.53
2023-04-18T05:56:53.103Z,8.93
2023-04-18T05:59:22.099Z,8.75
2023-04-18T06:01:51.696Z,8.13
2023-04-18T06:04:21.643Z,7.85
2023-04-18T06:06:51.028Z,8.38
2023-04-18T06:09:20.130Z,8.73
2023-04-18T06:11:49.290Z,8.18
2023-04-18T06:14:19.606Z,8.82
2023-04-18T06:16:48.735Z,9.27
2023-04-18T06:19:17.733Z,8.05
2023-04-18T06:21:46.669Z,9.68
2023-04-18T06:24:16.556Z,8.75
2023-04-18T06:26:46.702Z,8.60
2023-04-18T06:29:18.166Z,8.10
2023-04-18T06:31:48.796Z,8.65
2023-04-18T06:34:17.957Z,8.07
2023-04-18T06:36:46.873Z,7.15
2023-04-18T06:39:17.104Z,8.57
2023-04-18T06:41:46.222Z,7.80
2023-04-18T06:44:22.914Z,8.25
2023-04-18T06:46:53.370Z,8.13
2023-04-18T06:49:26.498Z,7.65
2023-04-18T06:51:55.830Z,8.30
2023-04-18T06:54:24.944Z,8.57
2023-04-18T06:56:54.097Z,9.27
2023-04-18T06:59:23.533Z,8.77
2023-04-18T07:01:54.170Z,7.68
2023-04-18T07:04:23.280Z,8.32
2023-04-18T07:06:53.198Z,8.57
2023-04-18T07:09:22.821Z,8.52
2023-04-18T07:11:52.776Z,8.98
2023-04-18T07:14:24.502Z,8.43
2023-04-18T07:16:55.158Z,8.82
2023-04-18T07:19:24.292Z,8.48
2023-04-18T07:21:54.158Z,8.30
2023-04-18T07:24:24.352Z,8.40
2023-04-18T07:26:55.225Z,8.48
2023-04-18T07:29:24.898Z,9.02
2023-04-18T07:31:55.460Z,8.73
2023-04-18T07:34:27.187Z,8.80
2023-04-18T07:36:56.377Z,8.52
2023-04-18T07:39:25.490Z,9.63
2023-04-18T07:41:54.531Z,8.10
2023-04-18T07:44:25.429Z,8.10
2023-04-18T07:46:55.927Z,8.25
2023-04-18T07:49:24.993Z,7.18
2023-04-18T07:51:54.671Z,9.10
2023-04-18T07:54:23.857Z,8.52
2023-04-18T07:56:53.370Z,9.60
2023-04-18T07:59:22.513Z,8.52
2023-04-18T08:01:51.485Z,7.70
2023-04-18T08:04:21.917Z,7.53
2023-04-18T08:06:51.013Z,7.10
2023-04-18T08:09:20.720Z,7.15
2023-04-18T08:11:49.994Z,6.63
2023-04-18T08:14:19.011Z,6.68
2023-04-18T08:16:48.209Z,8.43
2023-04-18T08:19:17.284Z,7.32
2023-04-18T08:21:47.607Z,7.28
2023-04-18T08:24:16.599Z,7.50
2023-04-18T08:26:45.908Z,6.57
2023-04-18T08:29:15.383Z,6.47
2023-04-18T08:31:44.559Z,7.25
2023-04-18T08:34:14.470Z,7.07
2023-04-18T08:36:43.518Z,7.15
2023-04-18T08:39:14.224Z,8.05
2023-04-18T08:41:44.729Z,7.15
2023-04-18T08:44:13.966Z,7.85
2023-04-18T08:46:43.058Z,7.05
2023-04-18T08:49:12.870Z,6.72
2023-04-18T08:51:44.228Z,6.68
2023-04-18T08:54:16.193Z,7.10
2023-04-18T08:56:45.543Z,7.13
2023-04-18T08:59:14.847Z,7.25
2023-04-18T09:01:57.013Z,7.15
2023-04-18T09:04:37.534Z,7.32
2023-04-18T09:07:08.331Z,7.63
2023-04-18T09:09:46.351Z,6.65
2023-04-18T09:12:18.470Z,6.88
2023-04-18T09:14:48.635Z,8.82
2023-04-18T09:17:33.210Z,7.55
2023-04-18T09:20:06.362Z,7.85
2023-04-18T09:22:48.160Z,6.65
2023-04-18T09:25:35.132Z,7.53
2023-04-18T09:28:05.468Z,7.85
2023-04-18T09:30:38.096Z,6.90
2023-04-18T09:33:09.714Z,7.32
2023-04-18T09:35:39.000Z,6.85
2023-04-18T09:38:09.715Z,6.78
2023-04-18T09:40:40.165Z,6.82
2023-04-18T09:43:22.904Z,6.30
2023-04-18T09:45:53.470Z,6.95
2023-04-18T09:48:23.583Z,6.50
2023-04-18T09:50:53.711Z,7.57
2023-04-18T09:53:22.890Z,7.25
2023-04-18T09:55:57.509Z,7.18
2023-04-18T09:58:30.588Z,6.45
2023-04-18T10:01:00.622Z,7.13
2023-04-18T10:03:35.816Z,7.20
2023-04-18T10:06:05.611Z,6.72
2023-04-18T10:08:35.257Z,6.82
2023-04-18T10:11:06.374Z,6.95
2023-04-18T10:13:38.006Z,6.70
2023-04-18T10:16:08.053Z,7.40
2023-04-18T10:18:37.807Z,7.32
2023-04-18T10:21:07.246Z,6.70
2023-04-18T10:23:38.100Z,7.47
2023-04-18T10:26:09.412Z,7.20
2023-04-18T10:29:01.169Z,6.47
2023-04-18T10:31:30.858Z,6.93
2023-04-18T10:34:05.285Z,6.88
2023-04-18T10:39:21.102Z,7.25
2023-04-18T10:41:52.729Z,6.65
2023-04-18T10:44:23.823Z,7.40
2023-04-18T10:47:42.104Z,6.65
2023-04-18T10:50:17.260Z,6.20
2023-04-18T10:52:46.651Z,5.78
2023-04-18T10:55:19.672Z,6.05
2023-04-18T10:57:52.459Z,6.38
2023-04-18T11:00:24.380Z,5.88
2023-04-18T11:02:56.174Z,5.60
2023-04-18T11:05:27.273Z,5.88
2023-04-18T11:07:56.654Z,5.78
2023-04-18T11:10:27.207Z,5.30
2023-04-18T11:13:04.526Z,4.70
2023-04-18T11:15:33.830Z,5.65
2023-04-18T11:18:04.749Z,6.50
2023-04-18T11:20:59.143Z,5.38
2023-04-18T11:23:28.773Z,5.68
2023-04-18T11:25:58.749Z,5.72
2023-04-18T11:28:29.125Z,6.28
2023-04-18T11:31:00.463Z,5.47
2023-04-18T11:33:30.519Z,5.60
2023-04-18T11:35:59.989Z,5.63
2023-04-18T11:38:47.677Z,5.38
2023-04-18T11:41:17.521Z,5.65
2023-04-18T11:43:48.384Z,5.63
2023-04-18T11:46:17.621Z,5.32
2023-04-18T11:48:48.072Z,5.38
2023-04-18T11:51:38.752Z,5.50
2023-04-18T11:54:28.227Z,5.47
2023-04-18T11:56:57.692Z,6.15
2023-04-18T11:59:51.539Z,6.45
2023-04-18T12:04:56.318Z,5.35
2023-04-18T12:07:46.750Z,5.07
2023-04-18T12:10:26.934Z,6.15
2023-04-18T12:13:15.640Z,5.80
2023-04-18T12:15:47.534Z,5.40
2023-04-18T12:18:19.925Z,6.03
2023-04-18T12:20:51.830Z,5.82
2023-04-18T12:23:31.774Z,4.97
2023-04-18T12:26:02.618Z,4.43
2023-04-18T12:28:33.636Z,6.05
2023-04-18T12:33:52.231Z,5.30
2023-04-18T12:36:38.641Z,5.65
2023-04-18T12:39:07.763Z,5.57
2023-04-18T12:41:36.935Z,5.22
2023-04-18T12:44:06.990Z,5.40
2023-04-18T12:46:37.704Z,5.68
2023-04-18T12:49:06.875Z,5.07
2023-04-18T12:51:54.814Z,5.13
2023-04-18T12:54:25.803Z,5.10
2023-04-18T12:57:13.268Z,5.30
2023-04-18T12:59:45.655Z,5.25
2023-04-18T13:02:16.210Z,4.45
2023-04-18T13:05:03.648Z,5.40
2023-04-18T13:07:58.669Z,5.60
2023-04-18T13:10:53.433Z,4.80
2023-04-18T13:13:42.566Z,4.72
2023-04-18T13:16:12.099Z,4.68
2023-04-18T13:19:01.500Z,4.40
2023-04-18T13:21:31.506Z,5.25
2023-04-18T13:24:19.140Z,4.20
2023-04-18T13:30:12.006Z,4.95
2023-04-18T13:32:42.164Z,4.80
2023-04-18T13:35:50.337Z,4.38
2023-04-18T13:38:19.365Z,4.38
2023-04-18T13:40:50.510Z,3.88
2023-04-18T13:43:23.009Z,3.90
2023-04-18T13:45:52.232Z,4.65
2023-04-18T13:48:21.383Z,4.32
2023-04-18T13:51:10.248Z,4.38
2023-04-18T13:54:17.052Z,4.63
2023-04-18T13:57:04.622Z,3.78
2023-04-18T13:59:33.963Z,5.00
2023-04-18T14:02:21.640Z,4.32
2023-04-18T14:05:26.710Z,4.10
2023-04-18T14:08:34.090Z,4.35
2023-04-18T14:11:20.436Z,3.97
2023-04-18T14:13:49.769Z,4.25
2023-04-18T14:16:54.780Z,4.45
2023-04-18T14:19:42.475Z,4.60
2023-04-18T14:22:12.190Z,3.92
2023-04-18T14:24:43.026Z,3.90
2023-04-18T14:27:12.199Z,4.85
2023-04-18T14:29:41.349Z,3.78
2023-04-18T14:32:10.716Z,4.45
2023-04-18T14:34:39.996Z,4.38
2023-04-18T14:37:09.702Z,4.43
2023-04-18T14:39:39.252Z,4.55
2023-04-18T14:42:09.755Z,4.35
2023-04-18T14:44:38.859Z,4.75
2023-04-18T14:47:08.010Z,4.65
2023-04-18T14:49:37.358Z,4.28
2023-04-18T14:52:06.636Z,4.72
2023-04-18T14:54:35.675Z,3.85
2023-04-18T14:57:04.906Z,4.78
2023-04-18T14:59:35.430Z,4.07
2023-04-18T15:02:04.919Z,4.25
2023-04-18T15:04:51.935Z,4.78
2023-04-18T15:07:20.981Z,4.28
2023-04-18T15:09:50.487Z,4.30
2023-04-18T15:12:19.510Z,4.22
2023-04-18T15:14:50.441Z,4.60
2023-04-18T15:17:19.378Z,3.50
2023-04-18T15:19:49.189Z,3.88
2023-04-18T15:22:18.321Z,4.25
2023-04-18T15:24:47.543Z,4.30
2023-04-18T15:27:16.562Z,4.10
2023-04-18T15:29:45.585Z,4.78
2023-04-18T15:32:16.452Z,4.55
2023-04-18T15:34:45.713Z,4.03
2023-04-18T15:37:14.794Z,4.00
2023-04-18T15:39:43.875Z,4.88
2023-04-18T15:42:13.033Z,4.38
2023-04-18T15:44:42.072Z,4.03
2023-04-18T15:47:30.281Z,4.20
2023-04-18T15:50:01.043Z,3.90
2023-04-18T15:52:31.044Z,4.68
2023-04-18T15:55:00.554Z,3.92
2023-04-18T15:57:30.535Z,4.25
2023-04-18T15:59:59.777Z,3.50
2023-04-18T16:02:29.081Z,3.80
2023-04-18T16:04:58.197Z,3.97
2023-04-18T16:07:28.762Z,5.00
2023-04-18T16:09:57.693Z,4.68
2023-04-18T16:12:26.860Z,4.35
2023-04-18T16:14:56.100Z,4.43
2023-04-18T16:17:25.140Z,4.32
2023-04-18T16:19:54.457Z,5.03
2023-04-18T16:22:23.567Z,5.45
2023-04-18T16:24:54.196Z,5.50
2023-04-18T16:27:23.268Z,5.18
2023-04-18T16:29:53.900Z,4.85
2023-04-18T16:32:23.072Z,4.85
2023-04-18T16:34:52.422Z,5.05
2023-04-18T16:37:21.698Z,6.18
2023-04-18T16:39:51.337Z,5.60
2023-04-18T16:42:21.852Z,5.05
2023-04-18T16:44:50.981Z,4.95
2023-04-18T16:47:20.465Z,4.57
2023-04-18T16:49:50.859Z,5.18
2023-04-18T16:52:20.056Z,5.47
2023-04-18T16:54:51.233Z,5.32
2023-04-18T16:57:22.943Z,5.90
2023-04-18T16:59:52.246Z,5.80
2023-04-18T17:02:21.672Z,5.60
2023-04-18T17:04:52.391Z,5.63
2023-04-18T17:07:21.674Z,6.97
2023-04-18T17:09:50.770Z,5.95
2023-04-18T17:12:19.839Z,5.68
2023-04-18T17:14:50.256Z,5.18
2023-04-18T17:17:19.377Z,5.47
2023-04-18T17:19:48.849Z,6.70
2023-04-18T17:22:18.256Z,6.05
2023-04-18T17:27:34.007Z,5.97
2023-04-18T17:30:04.885Z,5.75
2023-04-18T17:32:35.351Z,6.55
2023-04-18T17:35:06.502Z,6.57
2023-04-18T17:37:54.095Z,7.72
2023-04-18T17:40:23.429Z,7.20
2023-04-18T17:42:52.603Z,6.35
2023-04-18T17:45:23.090Z,6.45
2023-04-18T17:47:57.627Z,6.88
2023-04-18T17:50:26.948Z,6.20
2023-04-18T17:52:58.632Z,6.25
2023-04-18T17:55:28.020Z,5.65
2023-04-18T17:57:57.590Z,5.38
2023-04-18T18:00:28.564Z,6.55
2023-04-18T18:03:16.285Z,5.72
2023-04-18T18:05:47.549Z,6.18
2023-04-18T18:08:17.394Z,5.85
2023-04-18T18:10:47.383Z,5.32
2023-04-18T18:13:16.643Z,6.50
2023-04-18T18:15:47.037Z,5.68
2023-04-18T18:18:29.918Z,5.75
2023-04-18T18:20:59.309Z,5.75
2023-04-18T18:23:28.419Z,6.15
2023-04-18T18:25:57.423Z,6.18
2023-04-18T18:28:26.614Z,6.45
2023-04-18T18:30:57.443Z,6.20
2023-04-18T18:33:26.579Z,6.32
2023-04-18T18:36:14.607Z,6.05
2023-04-18T18:38:43.852Z,6.10
2023-04-18T18:41:12.921Z,5.50
2023-04-18T18:43:42.073Z,5.93
2023-04-18T18:46:12.626Z,5.72
2023-04-18T18:48:41.790Z,5.70
2023-04-18T18:51:11.709Z,5.82
2023-04-18T18:53:40.812Z,5.75
2023-04-18T18:56:28.270Z,5.38
2023-04-18T18:58:57.277Z,5.53
2023-04-18T19:01:30.328Z,5.93
2023-04-18T19:03:59.530Z,5.30
2023-04-18T19:06:32.353Z,5.13
2023-04-18T19:09:37.374Z,5.70
2023-04-18T19:12:08.484Z,5.82
2023-04-18T19:14:37.455Z,5.45
2023-04-18T19:17:08.037Z,5.90
2023-04-18T19:19:37.357Z,5.85
2023-04-18T19:22:06.972Z,6.10
2023-04-18T19:24:54.619Z,5.35
2023-04-18T19:27:24.672Z,5.70
2023-04-18T19:29:53.909Z,5.40
2023-04-18T19:32:42.680Z,5.68
2023-04-18T19:35:13.508Z,5.20
2023-04-18T19:38:05.479Z,6.32
2023-04-18T19:40:59.173Z,5.97
2023-04-18T19:43:29.525Z,6.10
2023-04-18T19:45:58.681Z,5.55
2023-04-18T19:48:29.229Z,5.72
2023-04-18T19:50:58.790Z,6.25
2023-04-18T19:53:27.765Z,5.68
2023-04-18T19:55:57.564Z,6.10
2023-04-18T19:58:36.633Z,6.00
2023-04-18T20:01:06.298Z,5.70
2023-04-18T20:03:54.710Z,6.28
2023-04-18T20:06:25.252Z,5.72
2023-04-18T20:08:54.796Z,5.05
2023-04-18T20:11:32.816Z,5.95
2023-04-18T20:14:06.713Z,5.65
2023-04-18T20:16:53.312Z,5.25
2023-04-18T20:19:29.957Z,4.97
2023-04-18T20:22:35.499Z,5.15
2023-04-18T20:25:04.632Z,4.95
2023-04-18T20:27:52.912Z,5.80
2023-04-18T20:30:39.431Z,4.78
2023-04-18T20:33:45.738Z,4.45
2023-04-18T20:36:33.575Z,5.10
2023-04-18T20:39:03.853Z,4.65
2023-04-18T20:41:34.849Z,4.15
2023-04-18T20:44:22.736Z,4.68
2023-04-18T20:47:10.536Z,4.25
2023-04-18T20:49:39.795Z,4.18
2023-04-18T20:52:10.775Z,3.63
2023-04-18T20:54:41.252Z,3.47
2023-04-18T20:57:10.591Z,4.57
2023-04-18T20:59:39.836Z,5.45
2023-04-18T21:02:10.094Z,4.00
2023-04-18T21:05:16.846Z,4.43
2023-04-18T21:10:33.429Z,3.30
2023-04-18T21:15:57.139Z,4.90
2023-04-18T21:18:44.947Z,4.05
2023-04-18T21:21:14.125Z,4.13
2023-04-18T21:24:37.714Z,3.20
2023-04-18T21:27:08.480Z,3.88
2023-04-18T21:29:37.627Z,4.43
2023-04-18T21:32:25.543Z,4.25
2023-04-18T21:34:56.033Z,4.20
2023-04-18T21:37:25.741Z,4.00
2023-04-18T21:40:12.122Z,4.53
2023-04-18T21:42:42.831Z,3.67
2023-04-18T21:45:30.838Z,3.95
2023-04-18T21:47:59.925Z,3.65
2023-04-18T21:50:29.139Z,4.25
2023-04-18T21:52:58.281Z,4.22
2023-04-18T21:55:27.599Z,3.90
2023-04-18T21:57:58.172Z,4.20
2023-04-18T22:00:27.808Z,4.03
2023-04-18T22:02:57.161Z,3.92
2023-04-18T22:05:47.358Z,4.28
2023-04-18T22:08:17.646Z,4.68
2023-04-18T22:10:50.571Z,3.83
2023-04-18T22:13:21.071Z,3.38
2023-04-18T22:16:07.818Z,4.18
2023-04-18T22:18:37.937Z,4.28
2023-04-18T22:21:09.668Z,4.35
2023-04-18T22:23:38.658Z,4.20
2023-04-18T22:26:07.603Z,3.92
2023-04-18T22:28:38.186Z,4.10
2023-04-18T22:31:07.279Z,4.72
2023-04-18T22:33:36.458Z,3.97
2023-04-18T22:36:24.440Z,4.10
2023-04-18T22:38:53.559Z,4.93
2023-04-18T22:41:22.536Z,3.90
2023-04-18T22:43:52.869Z,4.05
2023-04-18T22:46:21.904Z,4.57
2023-04-18T22:48:50.945Z,4.30
2023-04-18T22:51:20.377Z,4.35
2023-04-18T22:53:49.491Z,5.20
2023-04-18T22:56:18.409Z,4.05
2023-04-18T22:58:47.600Z,3.95
2023-04-18T23:01:18.113Z,4.40
2023-04-18T23:03:47.259Z,4.25
2023-04-18T23:06:16.492Z,4.88
2023-04-18T23:08:45.580Z,4.80
2023-04-18T23:11:14.517Z,5.05
2023-04-18T23:13:43.578Z,4.65
2023-04-18T23:16:12.745Z,4.53
2023-04-18T23:18:43.392Z,5.03
2023-04-18T23:21:12.291Z,5.20
2023-04-18T23:23:41.334Z,5.22
2023-04-18T23:26:14.625Z,5.47
2023-04-18T23:28:43.783Z,5.07
2023-04-18T23:31:13.362Z,4.50
2023-04-18T23:33:44.443Z,5.22
2023-04-18T23:36:13.978Z,5.72
2023-04-18T23:38:43.351Z,5.00
2023-04-18T23:41:12.345Z,4.85
2023-04-18T23:43:41.300Z,4.95
2023-04-18T23:46:10.528Z,4.88
2023-04-18T23:48:39.466Z,5.20
2023-04-18T23:51:09.745Z,4.95
2023-04-18T23:53:38.803Z,5.60
2023-04-18T23:56:08.505Z,5.55
2023-04-18T23:58:37.586Z,5.03
